Des Moines International Airport
KDSM : now visible

Airfield :











YOU CAN JOIN US ON...

 
LOGIN :

Register | Disclaimer

   EN    FR    IT 

 









Legend :    VFR   Marginal VFR   IFR   Intensive IFR   Very Intensive IFR
Visi :
Ceiling :
>= 8 km
>= 3000ft
5 to 8 km
1000 to 3000 ft
1500m to 5 km
500 to 1000 ft
800 to 1500m
200 to 500 ft
< 800m
< 200 ft
Symbols :   Thunderstorms  Fog  Heavy snow  Heavy precipitations  Wind > 20 kt






- Airport Elevation : 958 ft
- IATA code : DSM


KDSM - Des Moines International

CURRENT METAR :
  • 022354Z 14010KT 10SM SCT048 SCT075 OVC100 13/10 A2992 RMK AO2 RAE17B36E44 SLP133 TS DSIPTD P0000 60000 T01280100 10178 20122 53015

EXPIRED METARs :
  • 022336Z 14010G20KT 10SM -RA SCT048 OVC100 13/10 A2992 RMK AO2 RAE17B36 TS DSIPTD P0000 T01330100
  • 022313Z 18010KT 10SM VCTS -RA FEW046CB FEW075 OVC090 14/10 A2993 RMK AO2 LTG DSNT NW OCNL LTGIC VC NW TS VC NW MOV NE P0000 T01390100
  • 022254Z 15010KT 10SM -RA FEW060 BKN075 OVC110 14/09 A2991 RMK AO2 LTG DSNT W AND NW RAB30 SLP128 OCNL LTGICCG DSNT W-NW CB DSNT W-NW MOV NE P0000 T01440089
  • 022154Z 16014KT 10SM FEW045 SCT070 BKN110 BKN250 16/09 A2989 RMK AO2 LTG DSNT S AND SW SLP120 FRQ LTGICCG DSNT SW-W CB DSNT SW-W MOV NE T01610089

TAF KDSM
Valid from the 03 at 00:00 until the 04 at 00:00 UTC


022323Z 0300/0324 15010KT P6SM -RA FEW060 BKN080
FM030400 12009KT 5SM BR VCSH OVC025
FM030900 33010KT 5SM -SHRA OVC010
FM031600 33012KT 1 1/2SM RA BR OVC008
FM031800 33013KT 3SM -RA OVC008
FM032200 34013KT 6SM -RA OVC020



MET'MAP, your aeronautical weather chart ! - Copyright ORBIFLY December 2007 - Disclaimer

ORBIFLY MET'MAP TEAM :

Programming & Development : Alexandra Zaïnal
Concept & original design : Baudouin d'Aumeries
Assistance for programming : Marc-Olivier Méhu
Technical & hardware support : Manuel Goepfert

Contact : metmap@orbifly.com




SOURCES & CREDITS :

   NOAA       Earth
Advisory